Terminal Aerodrome Forecast
Issued by NWS

Home | Current Version | Previous Version | Text Only | Print | Product List | Glossary Off
Versions: 1 2 3 4 5 6 7 8 9 10 11 12 13 14 15 16 17 18

000
FTUS43 KGRB 262332
TAFCWA
TAF
KCWA 262332Z 2700/2724 VRB03KT P6SM SKC
     FM270700 00000KT 3SM BR SKC
      TEMPO 2708/2712 1/4SM FG OVC002
     FM271300 17003KT 6SM BR SKC
      TEMPO 2713/2715 2SM BR BKN010
     FM271500 20006KT P6SM SCT250
      AMD LTD TO CLD VIS AND WIND 2703/2711=

USA.gov is the U.S. government's official web portal to all federal, state and local government web resources and services.